sensor_id;sensor_type;location;lat;lon;timestamp;temperature;humidity
55211;DHT22;41082;52.822;6.666;2022-09-25T00:01:35;10.30;99.90
55211;DHT22;41082;52.822;6.666;2022-09-25T00:04:01;10.30;99.90
55211;DHT22;41082;52.822;6.666;2022-09-25T00:06:27;10.30;99.90
55211;DHT22;41082;52.822;6.666;2022-09-25T00:08:54;10.30;99.90
55211;DHT22;41082;52.822;6.666;2022-09-25T00:11:29;10.30;99.90
55211;DHT22;41082;52.822;6.666;2022-09-25T00:13:56;10.20;99.90
55211;DHT22;41082;52.822;6.666;2022-09-25T00:16:24;10.20;99.90
55211;DHT22;41082;52.822;6.666;2022-09-25T00:18:50;10.20;99.90
55211;DHT22;41082;52.822;6.666;2022-09-25T00:21:35;10.10;99.90
55211;DHT22;41082;52.822;6.666;2022-09-25T00:24:03;10.10;99.90
55211;DHT22;41082;52.822;6.666;2022-09-25T00:26:31;10.10;99.90
55211;DHT22;41082;52.822;6.666;2022-09-25T00:28:58;10.00;99.90
55211;DHT22;41082;52.822;6.666;2022-09-25T00:31:26;10.00;99.90
55211;DHT22;41082;52.822;6.666;2022-09-25T00:33:52;10.00;99.90
55211;DHT22;41082;52.822;6.666;2022-09-25T00:36:19;10.00;99.90
55211;DHT22;41082;52.822;6.666;2022-09-25T00:38:45;10.00;99.90
55211;DHT22;41082;52.822;6.666;2022-09-25T00:41:19;10.00;99.90
55211;DHT22;41082;52.822;6.666;2022-09-25T00:43:53;9.90;99.90
55211;DHT22;41082;52.822;6.666;2022-09-25T00:46:31;9.90;99.90
55211;DHT22;41082;52.822;6.666;2022-09-25T00:49:04;9.90;99.90
55211;DHT22;41082;52.822;6.666;2022-09-25T00:51:39;9.90;99.90
55211;DHT22;41082;52.822;6.666;2022-09-25T00:54:09;9.80;99.90
55211;DHT22;41082;52.822;6.666;2022-09-25T00:56:41;9.80;99.90
55211;DHT22;41082;52.822;6.666;2022-09-25T00:59:14;9.80;99.90
55211;DHT22;41082;52.822;6.666;2022-09-25T01:01:41;9.80;99.90
55211;DHT22;41082;52.822;6.666;2022-09-25T01:04:08;9.80;99.90
55211;DHT22;41082;52.822;6.666;2022-09-25T01:06:34;9.80;99.90
55211;DHT22;41082;52.822;6.666;2022-09-25T01:09:00;9.80;99.90
55211;DHT22;41082;52.822;6.666;2022-09-25T01:11:26;9.80;99.90
55211;DHT22;41082;52.822;6.666;2022-09-25T01:13:54;9.80;99.90
55211;DHT22;41082;52.822;6.666;2022-09-25T01:16:33;9.70;99.90
55211;DHT22;41082;52.822;6.666;2022-09-25T01:19:05;9.80;99.90
55211;DHT22;41082;52.822;6.666;2022-09-25T01:21:43;9.70;99.90
55211;DHT22;41082;52.822;6.666;2022-09-25T01:29:44;9.70;99.90
55211;DHT22;41082;52.822;6.666;2022-09-25T01:32:26;9.60;99.90
55211;DHT22;41082;52.822;6.666;2022-09-25T01:35:34;9.60;99.90
55211;DHT22;41082;52.822;6.666;2022-09-25T01:37:57;9.60;99.90
55211;DHT22;41082;52.822;6.666;2022-09-25T01:43:29;9.60;99.90
55211;DHT22;41082;52.822;6.666;2022-09-25T01:46:02;9.60;99.90
55211;DHT22;41082;52.822;6.666;2022-09-25T01:48:31;9.60;99.90
55211;DHT22;41082;52.822;6.666;2022-09-25T01:51:12;9.60;99.90
55211;DHT22;41082;52.822;6.666;2022-09-25T01:53:53;9.60;99.90
55211;DHT22;41082;52.822;6.666;2022-09-25T01:56:23;9.50;99.90
55211;DHT22;41082;52.822;6.666;2022-09-25T01:59:15;9.50;99.90
55211;DHT22;41082;52.822;6.666;2022-09-25T02:01:44;9.60;99.90
55211;DHT22;41082;52.822;6.666;2022-09-25T02:04:21;9.50;99.90
55211;DHT22;41082;52.822;6.666;2022-09-25T02:06:49;9.50;99.90
55211;DHT22;41082;52.822;6.666;2022-09-25T02:09:30;9.50;99.90
55211;DHT22;41082;52.822;6.666;2022-09-25T02:11:59;9.50;99.90
55211;DHT22;41082;52.822;6.666;2022-09-25T02:14:32;9.50;99.90
55211;DHT22;41082;52.822;6.666;2022-09-25T02:17:03;9.50;99.90
55211;DHT22;41082;52.822;6.666;2022-09-25T02:19:29;9.50;99.90
55211;DHT22;41082;52.822;6.666;2022-09-25T02:22:18;9.40;99.90
55211;DHT22;41082;52.822;6.666;2022-09-25T02:25:03;9.40;99.90
55211;DHT22;41082;52.822;6.666;2022-09-25T02:27:31;9.40;99.90
55211;DHT22;41082;52.822;6.666;2022-09-25T02:29:58;9.40;99.90
55211;DHT22;41082;52.822;6.666;2022-09-25T02:32:28;9.40;99.90
55211;DHT22;41082;52.822;6.666;2022-09-25T02:34:56;9.40;99.90
55211;DHT22;41082;52.822;6.666;2022-09-25T02:37:21;9.40;99.90
55211;DHT22;41082;52.822;6.666;2022-09-25T02:39:50;9.30;99.90
55211;DHT22;41082;52.822;6.666;2022-09-25T02:50:35;9.30;99.90
55211;DHT22;41082;52.822;6.666;2022-09-25T02:53:34;9.30;99.90
55211;DHT22;41082;52.822;6.666;2022-09-25T02:58:41;9.20;99.90
55211;DHT22;41082;52.822;6.666;2022-09-25T03:01:12;9.20;99.90
55211;DHT22;41082;52.822;6.666;2022-09-25T03:03:39;9.20;99.90
55211;DHT22;41082;52.822;6.666;2022-09-25T03:06:06;9.20;99.90
55211;DHT22;41082;52.822;6.666;2022-09-25T03:08:35;9.10;99.90
55211;DHT22;41082;52.822;6.666;2022-09-25T03:11:06;9.10;99.90
55211;DHT22;41082;52.822;6.666;2022-09-25T03:13:33;9.10;99.90
55211;DHT22;41082;52.822;6.666;2022-09-25T03:18:27;9.10;99.90
55211;DHT22;41082;52.822;6.666;2022-09-25T03:20:53;9.20;99.90
55211;DHT22;41082;52.822;6.666;2022-09-25T03:23:19;9.10;99.90
55211;DHT22;41082;52.822;6.666;2022-09-25T03:25:44;9.10;99.90
55211;DHT22;41082;52.822;6.666;2022-09-25T03:28:11;9.10;99.90
55211;DHT22;41082;52.822;6.666;2022-09-25T03:30:38;9.10;99.90
55211;DHT22;41082;52.822;6.666;2022-09-25T03:33:05;9.10;99.90
55211;DHT22;41082;52.822;6.666;2022-09-25T03:35:31;9.10;99.90
55211;DHT22;41082;52.822;6.666;2022-09-25T03:37:57;9.10;99.90
55211;DHT22;41082;52.822;6.666;2022-09-25T03:40:23;9.00;99.90
55211;DHT22;41082;52.822;6.666;2022-09-25T03:42:49;9.00;99.90
55211;DHT22;41082;52.822;6.666;2022-09-25T03:45:14;9.00;99.90
55211;DHT22;41082;52.822;6.666;2022-09-25T03:47:40;9.00;99.90
55211;DHT22;41082;52.822;6.666;2022-09-25T03:50:06;9.00;99.90
55211;DHT22;41082;52.822;6.666;2022-09-25T03:52:33;8.90;99.90
55211;DHT22;41082;52.822;6.666;2022-09-25T03:54:59;8.90;99.90
55211;DHT22;41082;52.822;6.666;2022-09-25T03:57:24;8.90;99.90
55211;DHT22;41082;52.822;6.666;2022-09-25T03:59:51;8.90;99.90
55211;DHT22;41082;52.822;6.666;2022-09-25T04:02:16;8.90;99.90
55211;DHT22;41082;52.822;6.666;2022-09-25T04:04:42;9.00;99.90
55211;DHT22;41082;52.822;6.666;2022-09-25T04:07:09;8.90;99.90
55211;DHT22;41082;52.822;6.666;2022-09-25T04:09:34;8.90;99.90
55211;DHT22;41082;52.822;6.666;2022-09-25T04:12:00;8.90;99.90
55211;DHT22;41082;52.822;6.666;2022-09-25T04:14:26;8.90;99.90
55211;DHT22;41082;52.822;6.666;2022-09-25T04:16:51;8.80;99.90
55211;DHT22;41082;52.822;6.666;2022-09-25T04:19:17;8.80;99.90
55211;DHT22;41082;52.822;6.666;2022-09-25T04:21:42;8.80;99.90
55211;DHT22;41082;52.822;6.666;2022-09-25T04:24:09;8.80;99.90
55211;DHT22;41082;52.822;6.666;2022-09-25T04:26:53;8.70;99.90
55211;DHT22;41082;52.822;6.666;2022-09-25T04:29:19;8.80;99.90
55211;DHT22;41082;52.822;6.666;2022-09-25T04:31:45;8.70;99.90
55211;DHT22;41082;52.822;6.666;2022-09-25T04:34:34;8.70;99.90
55211;DHT22;41082;52.822;6.666;2022-09-25T04:37:00;8.80;99.90
55211;DHT22;41082;52.822;6.666;2022-09-25T04:39:26;8.80;99.90
55211;DHT22;41082;52.822;6.666;2022-09-25T04:41:52;8.80;99.90
55211;DHT22;41082;52.822;6.666;2022-09-25T04:44:17;8.80;99.90
55211;DHT22;41082;52.822;6.666;2022-09-25T04:46:43;8.80;99.90
55211;DHT22;41082;52.822;6.666;2022-09-25T04:49:08;8.70;99.90
55211;DHT22;41082;52.822;6.666;2022-09-25T04:51:34;8.70;99.90
55211;DHT22;41082;52.822;6.666;2022-09-25T04:53:59;8.80;99.90
55211;DHT22;41082;52.822;6.666;2022-09-25T04:56:25;8.70;99.90
55211;DHT22;41082;52.822;6.666;2022-09-25T04:58:51;8.70;99.90
55211;DHT22;41082;52.822;6.666;2022-09-25T05:01:18;8.70;99.90
55211;DHT22;41082;52.822;6.666;2022-09-25T05:03:48;8.70;99.90
55211;DHT22;41082;52.822;6.666;2022-09-25T05:06:15;8.70;99.90
55211;DHT22;41082;52.822;6.666;2022-09-25T05:08:41;8.70;99.90
55211;DHT22;41082;52.822;6.666;2022-09-25T05:11:06;8.70;99.90
55211;DHT22;41082;52.822;6.666;2022-09-25T05:13:32;8.70;99.90
55211;DHT22;41082;52.822;6.666;2022-09-25T05:15:58;8.70;99.90
55211;DHT22;41082;52.822;6.666;2022-09-25T05:18:24;8.70;99.90
55211;DHT22;41082;52.822;6.666;2022-09-25T05:20:50;8.70;99.90
55211;DHT22;41082;52.822;6.666;2022-09-25T05:23:18;8.70;99.90
55211;DHT22;41082;52.822;6.666;2022-09-25T05:25:49;8.70;99.90
55211;DHT22;41082;52.822;6.666;2022-09-25T05:28:15;8.70;99.90
55211;DHT22;41082;52.822;6.666;2022-09-25T05:30:41;8.70;99.90
55211;DHT22;41082;52.822;6.666;2022-09-25T05:33:08;8.70;99.90
55211;DHT22;41082;52.822;6.666;2022-09-25T05:35:33;8.70;99.90
55211;DHT22;41082;52.822;6.666;2022-09-25T05:37:59;8.70;99.90
55211;DHT22;41082;52.822;6.666;2022-09-25T05:40:25;8.70;99.90
55211;DHT22;41082;52.822;6.666;2022-09-25T05:42:52;8.70;99.90
55211;DHT22;41082;52.822;6.666;2022-09-25T05:45:20;8.70;99.90
55211;DHT22;41082;52.822;6.666;2022-09-25T05:47:46;8.70;99.90
55211;DHT22;41082;52.822;6.666;2022-09-25T05:50:13;8.70;99.90
55211;DHT22;41082;52.822;6.666;2022-09-25T05:52:39;8.70;99.90
55211;DHT22;41082;52.822;6.666;2022-09-25T05:55:05;8.70;99.90
55211;DHT22;41082;52.822;6.666;2022-09-25T05:57:33;8.70;99.90
55211;DHT22;41082;52.822;6.666;2022-09-25T06:00:00;8.70;99.90
55211;DHT22;41082;52.822;6.666;2022-09-25T06:02:26;8.80;99.90
55211;DHT22;41082;52.822;6.666;2022-09-25T06:04:52;8.80;99.90
55211;DHT22;41082;52.822;6.666;2022-09-25T06:07:18;8.80;99.90
55211;DHT22;41082;52.822;6.666;2022-09-25T06:09:43;8.80;99.90
55211;DHT22;41082;52.822;6.666;2022-09-25T06:12:09;8.90;99.90
55211;DHT22;41082;52.822;6.666;2022-09-25T06:14:34;8.90;99.90
55211;DHT22;41082;52.822;6.666;2022-09-25T06:17:02;8.90;99.90
55211;DHT22;41082;52.822;6.666;2022-09-25T06:19:27;8.90;99.90
55211;DHT22;41082;52.822;6.666;2022-09-25T06:21:55;9.00;99.90
55211;DHT22;41082;52.822;6.666;2022-09-25T06:24:22;9.00;99.90
55211;DHT22;41082;52.822;6.666;2022-09-25T06:26:48;9.00;99.90
55211;DHT22;41082;52.822;6.666;2022-09-25T06:29:14;9.00;99.90
55211;DHT22;41082;52.822;6.666;2022-09-25T06:31:39;9.10;99.90
55211;DHT22;41082;52.822;6.666;2022-09-25T06:34:07;9.00;99.90
55211;DHT22;41082;52.822;6.666;2022-09-25T06:36:33;9.10;99.90
55211;DHT22;41082;52.822;6.666;2022-09-25T06:38:59;9.20;99.90
55211;DHT22;41082;52.822;6.666;2022-09-25T06:41:24;9.20;99.90
55211;DHT22;41082;52.822;6.666;2022-09-25T06:43:51;9.20;99.90
55211;DHT22;41082;52.822;6.666;2022-09-25T06:46:17;9.30;99.90
55211;DHT22;41082;52.822;6.666;2022-09-25T06:48:49;9.30;99.90
55211;DHT22;41082;52.822;6.666;2022-09-25T06:51:15;9.40;99.90
55211;DHT22;41082;52.822;6.666;2022-09-25T06:53:42;9.40;99.90
55211;DHT22;41082;52.822;6.666;2022-09-25T06:56:08;9.40;99.90
55211;DHT22;41082;52.822;6.666;2022-09-25T06:58:34;9.50;99.90
55211;DHT22;41082;52.822;6.666;2022-09-25T07:01:00;9.60;99.90
55211;DHT22;41082;52.822;6.666;2022-09-25T07:03:26;9.60;99.90
55211;DHT22;41082;52.822;6.666;2022-09-25T07:06:21;9.70;99.90
55211;DHT22;41082;52.822;6.666;2022-09-25T07:08:47;9.80;99.90
55211;DHT22;41082;52.822;6.666;2022-09-25T07:11:16;9.90;99.90
55211;DHT22;41082;52.822;6.666;2022-09-25T07:13:41;10.00;99.90
55211;DHT22;41082;52.822;6.666;2022-09-25T07:16:11;10.00;99.90
55211;DHT22;41082;52.822;6.666;2022-09-25T07:18:37;10.10;99.90
55211;DHT22;41082;52.822;6.666;2022-09-25T07:21:09;10.20;99.90
55211;DHT22;41082;52.822;6.666;2022-09-25T07:23:35;10.20;99.90
55211;DHT22;41082;52.822;6.666;2022-09-25T07:26:13;10.40;99.90
55211;DHT22;41082;52.822;6.666;2022-09-25T07:28:40;10.40;99.90
55211;DHT22;41082;52.822;6.666;2022-09-25T07:31:14;10.50;99.90
55211;DHT22;41082;52.822;6.666;2022-09-25T07:33:40;10.60;99.90
55211;DHT22;41082;52.822;6.666;2022-09-25T07:36:05;10.70;99.90
55211;DHT22;41082;52.822;6.666;2022-09-25T07:38:31;10.70;99.90
55211;DHT22;41082;52.822;6.666;2022-09-25T07:40:58;10.80;99.90
55211;DHT22;41082;52.822;6.666;2022-09-25T07:43:24;10.80;99.90
55211;DHT22;41082;52.822;6.666;2022-09-25T07:45:50;10.90;99.90
55211;DHT22;41082;52.822;6.666;2022-09-25T07:48:19;11.00;99.90
55211;DHT22;41082;52.822;6.666;2022-09-25T07:50:48;11.10;99.90
55211;DHT22;41082;52.822;6.666;2022-09-25T07:53:17;11.20;99.90
55211;DHT22;41082;52.822;6.666;2022-09-25T07:55:44;11.20;99.90
55211;DHT22;41082;52.822;6.666;2022-09-25T07:58:10;11.30;99.90
55211;DHT22;41082;52.822;6.666;2022-09-25T08:00:36;11.40;99.90
55211;DHT22;41082;52.822;6.666;2022-09-25T08:03:02;11.50;99.90
55211;DHT22;41082;52.822;6.666;2022-09-25T08:05:27;11.50;99.90
55211;DHT22;41082;52.822;6.666;2022-09-25T08:07:53;11.70;99.90
55211;DHT22;41082;52.822;6.666;2022-09-25T08:10:19;11.70;99.90
55211;DHT22;41082;52.822;6.666;2022-09-25T08:12:45;11.80;99.90
55211;DHT22;41082;52.822;6.666;2022-09-25T08:15:12;11.90;99.90
55211;DHT22;41082;52.822;6.666;2022-09-25T08:17:39;12.00;99.90
55211;DHT22;41082;52.822;6.666;2022-09-25T08:20:06;12.10;99.90
55211;DHT22;41082;52.822;6.666;2022-09-25T08:22:32;12.10;99.90
55211;DHT22;41082;52.822;6.666;2022-09-25T08:24:58;12.20;99.90
55211;DHT22;41082;52.822;6.666;2022-09-25T08:27:24;12.30;99.90
55211;DHT22;41082;52.822;6.666;2022-09-25T08:29:50;12.40;99.90
55211;DHT22;41082;52.822;6.666;2022-09-25T08:32:15;12.50;99.90
55211;DHT22;41082;52.822;6.666;2022-09-25T08:34:41;12.50;99.90
55211;DHT22;41082;52.822;6.666;2022-09-25T08:37:08;12.60;99.90
55211;DHT22;41082;52.822;6.666;2022-09-25T08:39:33;12.60;99.90
55211;DHT22;41082;52.822;6.666;2022-09-25T08:41:59;12.70;99.90
55211;DHT22;41082;52.822;6.666;2022-09-25T08:44:44;12.80;99.90
55211;DHT22;41082;52.822;6.666;2022-09-25T08:47:19;12.80;99.90
55211;DHT22;41082;52.822;6.666;2022-09-25T08:50:14;12.90;99.90
55211;DHT22;41082;52.822;6.666;2022-09-25T08:52:45;12.90;99.90
55211;DHT22;41082;52.822;6.666;2022-09-25T08:55:25;13.00;99.90
55211;DHT22;41082;52.822;6.666;2022-09-25T08:58:19;13.00;99.90
55211;DHT22;41082;52.822;6.666;2022-09-25T09:00:45;13.10;99.90
55211;DHT22;41082;52.822;6.666;2022-09-25T09:03:11;13.10;99.90
55211;DHT22;41082;52.822;6.666;2022-09-25T09:05:40;13.20;99.90
55211;DHT22;41082;52.822;6.666;2022-09-25T09:08:15;13.30;99.90
55211;DHT22;41082;52.822;6.666;2022-09-25T09:13:40;13.50;99.90
55211;DHT22;41082;52.822;6.666;2022-09-25T09:18:51;13.80;99.90
55211;DHT22;41082;52.822;6.666;2022-09-25T09:21:40;13.90;99.90
55211;DHT22;41082;52.822;6.666;2022-09-25T09:26:56;14.10;99.90
55211;DHT22;41082;52.822;6.666;2022-09-25T09:30:11;14.10;99.90
55211;DHT22;41082;52.822;6.666;2022-09-25T09:49:51;14.60;99.90
55211;DHT22;41082;52.822;6.666;2022-09-25T09:52:32;14.80;99.90
55211;DHT22;41082;52.822;6.666;2022-09-25T09:55:24;15.00;99.90
55211;DHT22;41082;52.822;6.666;2022-09-25T09:57:53;15.30;99.90
55211;DHT22;41082;52.822;6.666;2022-09-25T10:00:22;15.50;99.90
55211;DHT22;41082;52.822;6.666;2022-09-25T10:03:04;15.70;99.90
55211;DHT22;41082;52.822;6.666;2022-09-25T10:05:41;15.70;99.90
55211;DHT22;41082;52.822;6.666;2022-09-25T10:08:10;15.60;99.90
55211;DHT22;41082;52.822;6.666;2022-09-25T10:10:40;15.50;99.90
55211;DHT22;41082;52.822;6.666;2022-09-25T10:15:48;15.30;99.90
55211;DHT22;41082;52.822;6.666;2022-09-25T10:18:18;15.20;99.90
55211;DHT22;41082;52.822;6.666;2022-09-25T10:20:54;15.10;99.90
55211;DHT22;41082;52.822;6.666;2022-09-25T10:26:30;15.00;99.90
55211;DHT22;41082;52.822;6.666;2022-09-25T10:29:02;15.00;99.90
55211;DHT22;41082;52.822;6.666;2022-09-25T10:31:37;15.00;99.90
55211;DHT22;41082;52.822;6.666;2022-09-25T10:34:12;15.00;99.90
55211;DHT22;41082;52.822;6.666;2022-09-25T10:36:47;15.10;99.90
55211;DHT22;41082;52.822;6.666;2022-09-25T10:39:29;15.20;99.90
55211;DHT22;41082;52.822;6.666;2022-09-25T10:41:56;15.20;99.90
55211;DHT22;41082;52.822;6.666;2022-09-25T10:44:29;15.30;99.90
55211;DHT22;41082;52.822;6.666;2022-09-25T10:50:22;15.50;99.90
55211;DHT22;41082;52.822;6.666;2022-09-25T10:52:49;15.50;99.90
55211;DHT22;41082;52.822;6.666;2022-09-25T10:55:31;15.60;99.90
55211;DHT22;41082;52.822;6.666;2022-09-25T11:00:43;15.70;99.90
55211;DHT22;41082;52.822;6.666;2022-09-25T11:03:32;15.70;99.90
55211;DHT22;41082;52.822;6.666;2022-09-25T11:06:03;15.80;99.90
55211;DHT22;41082;52.822;6.666;2022-09-25T11:08:33;15.90;99.90
55211;DHT22;41082;52.822;6.666;2022-09-25T11:11:02;16.00;99.90
55211;DHT22;41082;52.822;6.666;2022-09-25T11:13:50;16.10;99.90
55211;DHT22;41082;52.822;6.666;2022-09-25T11:16:18;16.20;99.90
55211;DHT22;41082;52.822;6.666;2022-09-25T11:18:49;16.30;99.90
55211;DHT22;41082;52.822;6.666;2022-09-25T11:21:26;16.40;99.90
55211;DHT22;41082;52.822;6.666;2022-09-25T11:26:37;16.50;99.90
55211;DHT22;41082;52.822;6.666;2022-09-25T11:29:12;16.30;99.90
55211;DHT22;41082;52.822;6.666;2022-09-25T11:31:45;16.30;99.90
55211;DHT22;41082;52.822;6.666;2022-09-25T11:34:35;16.30;99.90
55211;DHT22;41082;52.822;6.666;2022-09-25T11:43:05;16.60;99.90
55211;DHT22;41082;52.822;6.666;2022-09-25T11:45:38;16.60;99.90
55211;DHT22;41082;52.822;6.666;2022-09-25T11:48:21;16.70;99.90
55211;DHT22;41082;52.822;6.666;2022-09-25T11:51:24;16.70;99.90
55211;DHT22;41082;52.822;6.666;2022-09-25T11:56:34;16.70;99.90
55211;DHT22;41082;52.822;6.666;2022-09-25T12:00:03;16.70;99.90
55211;DHT22;41082;52.822;6.666;2022-09-25T12:10:37;16.80;99.90
55211;DHT22;41082;52.822;6.666;2022-09-25T12:13:11;16.80;99.90
55211;DHT22;41082;52.822;6.666;2022-09-25T12:18:59;16.90;99.90
55211;DHT22;41082;52.822;6.666;2022-09-25T12:24:13;16.80;99.90
55211;DHT22;41082;52.822;6.666;2022-09-25T12:32:17;16.80;99.90
55211;DHT22;41082;52.822;6.666;2022-09-25T12:37:59;16.70;99.90
55211;DHT22;41082;52.822;6.666;2022-09-25T12:48:53;16.40;99.90
55211;DHT22;41082;52.822;6.666;2022-09-25T12:51:35;16.40;99.90
55211;DHT22;41082;52.822;6.666;2022-09-25T12:54:28;16.30;99.90
55211;DHT22;41082;52.822;6.666;2022-09-25T12:57:17;16.20;99.90
55211;DHT22;41082;52.822;6.666;2022-09-25T12:59:56;16.20;99.90
55211;DHT22;41082;52.822;6.666;2022-09-25T13:05:27;16.30;99.90
55211;DHT22;41082;52.822;6.666;2022-09-25T13:08:14;16.50;99.90
55211;DHT22;41082;52.822;6.666;2022-09-25T13:11:04;16.60;99.90
55211;DHT22;41082;52.822;6.666;2022-09-25T13:13:47;16.60;99.90
55211;DHT22;41082;52.822;6.666;2022-09-25T13:16:15;16.60;99.90
55211;DHT22;41082;52.822;6.666;2022-09-25T13:19:09;16.60;99.90
55211;DHT22;41082;52.822;6.666;2022-09-25T13:21:38;16.50;99.90
55211;DHT22;41082;52.822;6.666;2022-09-25T13:24:06;16.40;99.90
55211;DHT22;41082;52.822;6.666;2022-09-25T13:26:47;16.30;99.90
55211;DHT22;41082;52.822;6.666;2022-09-25T13:29:33;16.30;99.90
55211;DHT22;41082;52.822;6.666;2022-09-25T13:34:37;16.20;99.90
55211;DHT22;41082;52.822;6.666;2022-09-25T13:37:06;16.10;99.90
55211;DHT22;41082;52.822;6.666;2022-09-25T13:39:43;16.10;99.90
55211;DHT22;41082;52.822;6.666;2022-09-25T13:42:34;16.10;99.90
55211;DHT22;41082;52.822;6.666;2022-09-25T13:45:33;16.20;99.90
55211;DHT22;41082;52.822;6.666;2022-09-25T13:50:44;16.30;99.90
55211;DHT22;41082;52.822;6.666;2022-09-25T13:53:24;16.40;99.90
55211;DHT22;41082;52.822;6.666;2022-09-25T13:58:30;16.60;99.90
55211;DHT22;41082;52.822;6.666;2022-09-25T14:00:59;16.60;99.90
55211;DHT22;41082;52.822;6.666;2022-09-25T14:03:43;16.60;99.90
55211;DHT22;41082;52.822;6.666;2022-09-25T14:06:24;16.60;99.90
55211;DHT22;41082;52.822;6.666;2022-09-25T14:08:53;16.70;99.90
55211;DHT22;41082;52.822;6.666;2022-09-25T14:11:29;16.70;99.90
55211;DHT22;41082;52.822;6.666;2022-09-25T14:13:58;16.80;99.90
55211;DHT22;41082;52.822;6.666;2022-09-25T14:16:33;16.80;99.90
55211;DHT22;41082;52.822;6.666;2022-09-25T14:19:01;16.80;99.90
55211;DHT22;41082;52.822;6.666;2022-09-25T14:21:29;16.80;99.90
55211;DHT22;41082;52.822;6.666;2022-09-25T14:23:57;16.80;99.90
55211;DHT22;41082;52.822;6.666;2022-09-25T14:26:43;16.80;99.90
55211;DHT22;41082;52.822;6.666;2022-09-25T14:29:17;16.80;99.90
55211;DHT22;41082;52.822;6.666;2022-09-25T14:34:48;16.90;99.90
55211;DHT22;41082;52.822;6.666;2022-09-25T14:40:29;17.00;99.90
55211;DHT22;41082;52.822;6.666;2022-09-25T14:43:32;17.10;99.90
55211;DHT22;41082;52.822;6.666;2022-09-25T14:46:19;17.10;99.90
55211;DHT22;41082;52.822;6.666;2022-09-25T14:51:23;17.20;99.90
55211;DHT22;41082;52.822;6.666;2022-09-25T14:54:00;17.30;99.90
55211;DHT22;41082;52.822;6.666;2022-09-25T14:56:27;17.30;99.90
55211;DHT22;41082;52.822;6.666;2022-09-25T14:59:00;17.40;99.90
55211;DHT22;41082;52.822;6.666;2022-09-25T15:01:29;17.40;99.90
55211;DHT22;41082;52.822;6.666;2022-09-25T15:04:04;17.50;99.90
55211;DHT22;41082;52.822;6.666;2022-09-25T15:06:32;17.50;99.90
55211;DHT22;41082;52.822;6.666;2022-09-25T15:09:00;17.60;99.90
55211;DHT22;41082;52.822;6.666;2022-09-25T15:11:40;17.60;99.90
55211;DHT22;41082;52.822;6.666;2022-09-25T15:14:15;17.50;99.90
55211;DHT22;41082;52.822;6.666;2022-09-25T15:16:42;17.40;99.90
55211;DHT22;41082;52.822;6.666;2022-09-25T15:19:32;17.40;99.90
55211;DHT22;41082;52.822;6.666;2022-09-25T15:21:59;17.30;99.90
55211;DHT22;41082;52.822;6.666;2022-09-25T15:24:30;17.30;99.90
55211;DHT22;41082;52.822;6.666;2022-09-25T15:27:03;17.30;99.90
55211;DHT22;41082;52.822;6.666;2022-09-25T15:29:35;17.30;99.90
55211;DHT22;41082;52.822;6.666;2022-09-25T15:32:01;17.20;99.90
55211;DHT22;41082;52.822;6.666;2022-09-25T15:34:29;17.10;99.90
55211;DHT22;41082;52.822;6.666;2022-09-25T15:37:16;17.00;99.90
55211;DHT22;41082;52.822;6.666;2022-09-25T15:39:43;16.90;99.90
55211;DHT22;41082;52.822;6.666;2022-09-25T15:42:13;16.80;99.90
55211;DHT22;41082;52.822;6.666;2022-09-25T15:44:39;16.70;99.90
55211;DHT22;41082;52.822;6.666;2022-09-25T15:47:05;16.70;99.90
55211;DHT22;41082;52.822;6.666;2022-09-25T15:49:40;16.60;99.90
55211;DHT22;41082;52.822;6.666;2022-09-25T15:52:25;16.50;99.90
55211;DHT22;41082;52.822;6.666;2022-09-25T15:54:59;16.40;99.90
55211;DHT22;41082;52.822;6.666;2022-09-25T15:57:26;16.40;99.90
55211;DHT22;41082;52.822;6.666;2022-09-25T15:59:53;16.30;99.90
55211;DHT22;41082;52.822;6.666;2022-09-25T16:02:40;16.30;99.90
55211;DHT22;41082;52.822;6.666;2022-09-25T16:05:34;16.20;99.90
55211;DHT22;41082;52.822;6.666;2022-09-25T16:08:28;16.10;99.90
55211;DHT22;41082;52.822;6.666;2022-09-25T16:11:17;16.00;99.90
55211;DHT22;41082;52.822;6.666;2022-09-25T16:13:46;16.00;99.90
55211;DHT22;41082;52.822;6.666;2022-09-25T16:16:26;15.90;99.90
55211;DHT22;41082;52.822;6.666;2022-09-25T16:18:59;15.80;99.90
55211;DHT22;41082;52.822;6.666;2022-09-25T16:21:46;15.80;99.90
55211;DHT22;41082;52.822;6.666;2022-09-25T16:24:18;15.80;99.90
55211;DHT22;41082;52.822;6.666;2022-09-25T16:26:44;15.80;99.90
55211;DHT22;41082;52.822;6.666;2022-09-25T16:31:42;15.70;99.90
55211;DHT22;41082;52.822;6.666;2022-09-25T16:34:17;15.70;99.90
55211;DHT22;41082;52.822;6.666;2022-09-25T16:36:44;15.60;99.90
55211;DHT22;41082;52.822;6.666;2022-09-25T16:39:22;15.50;99.90
55211;DHT22;41082;52.822;6.666;2022-09-25T16:41:48;15.50;99.90
55211;DHT22;41082;52.822;6.666;2022-09-25T16:44:36;15.40;99.90
55211;DHT22;41082;52.822;6.666;2022-09-25T16:47:09;15.40;99.90
55211;DHT22;41082;52.822;6.666;2022-09-25T16:49:37;15.30;99.90
55211;DHT22;41082;52.822;6.666;2022-09-25T16:52:05;15.30;99.90
55211;DHT22;41082;52.822;6.666;2022-09-25T16:54:32;15.20;99.90
55211;DHT22;41082;52.822;6.666;2022-09-25T16:57:01;15.10;99.90
55211;DHT22;41082;52.822;6.666;2022-09-25T16:59:27;15.10;99.90
55211;DHT22;41082;52.822;6.666;2022-09-25T17:01:56;15.10;99.90
55211;DHT22;41082;52.822;6.666;2022-09-25T17:04:28;15.00;99.90
55211;DHT22;41082;52.822;6.666;2022-09-25T17:06:55;15.00;99.90
55211;DHT22;41082;52.822;6.666;2022-09-25T17:09:27;14.90;99.90
55211;DHT22;41082;52.822;6.666;2022-09-25T17:12:02;14.90;99.90
55211;DHT22;41082;52.822;6.666;2022-09-25T17:14:29;14.90;99.90
55211;DHT22;41082;52.822;6.666;2022-09-25T17:16:56;14.80;99.90
55211;DHT22;41082;52.822;6.666;2022-09-25T17:19:22;14.70;99.90
55211;DHT22;41082;52.822;6.666;2022-09-25T17:21:49;14.70;99.90
55211;DHT22;41082;52.822;6.666;2022-09-25T17:24:17;14.60;99.90
55211;DHT22;41082;52.822;6.666;2022-09-25T17:26:43;14.60;99.90
55211;DHT22;41082;52.822;6.666;2022-09-25T17:29:09;14.50;99.90
55211;DHT22;41082;52.822;6.666;2022-09-25T17:31:35;14.50;99.90
55211;DHT22;41082;52.822;6.666;2022-09-25T17:34:04;14.40;99.90
55211;DHT22;41082;52.822;6.666;2022-09-25T17:36:32;14.30;99.90
55211;DHT22;41082;52.822;6.666;2022-09-25T17:38:58;14.30;99.90
55211;DHT22;41082;52.822;6.666;2022-09-25T17:41:29;14.20;99.90
55211;DHT22;41082;52.822;6.666;2022-09-25T17:43:55;14.20;99.90
55211;DHT22;41082;52.822;6.666;2022-09-25T17:46:21;14.10;99.90
55211;DHT22;41082;52.822;6.666;2022-09-25T17:48:47;14.00;99.90
55211;DHT22;41082;52.822;6.666;2022-09-25T17:51:22;14.00;99.90
55211;DHT22;41082;52.822;6.666;2022-09-25T17:53:48;13.90;99.90
55211;DHT22;41082;52.822;6.666;2022-09-25T17:56:14;13.80;99.90
55211;DHT22;41082;52.822;6.666;2022-09-25T17:58:40;13.80;99.90
55211;DHT22;41082;52.822;6.666;2022-09-25T18:01:20;13.70;99.90
55211;DHT22;41082;52.822;6.666;2022-09-25T18:03:50;13.60;99.90
55211;DHT22;41082;52.822;6.666;2022-09-25T18:06:16;13.60;99.90
55211;DHT22;41082;52.822;6.666;2022-09-25T18:08:43;13.50;99.90